FFL750 KCMH-KHXD
Flight info
| Callsign | FFL750 |
|---|---|
| Flight time | 1h 9m |
| Altitude | 45000 |
| Route | POBSE OHIOS SPA CHECR |
| Aircraft | C750/M-SBDE3FGHRWXY/S |
Departure
| Time | 2026-04-23 13:52 |
|---|---|
| Airport | John Glenn Columbus International Airport (KCMH) |
Arrival
| Time | 2026-04-23 15:02 |
|---|---|
| Airport | Hilton Head Airport (KHXD) |
| Time | Latitude | Longitude | Altitude | Speed | Heading |
|---|---|---|---|---|---|
| 2026-04-23 13:29 | 39.99691 | -82.89000 | 817 ft | 0 kts | 276° |
| 2026-04-23 13:44 | 39.99691 | -82.89004 | 817 ft | 2 kts | 266° |
| 2026-04-23 13:44 | 39.99690 | -82.89007 | 817 ft | 2 kts | 257° |
| 2026-04-23 13:45 | 39.99661 | -82.89009 | 817 ft | 7 kts | 136° |
| 2026-04-23 13:45 | 39.99633 | -82.88951 | 816 ft | 8 kts | 120° |
| 2026-04-23 13:45 | 39.99592 | -82.88898 | 815 ft | 9 kts | 159° |
| 2026-04-23 13:45 | 39.99546 | -82.88924 | 816 ft | 8 kts | 249° |
| 2026-04-23 13:46 | 39.99546 | -82.89004 | 817 ft | 10 kts | 273° |
| 2026-04-23 13:46 | 39.99552 | -82.89097 | 817 ft | 10 kts | 272° |
| 2026-04-23 13:46 | 39.99534 | -82.89169 | 817 ft | 10 kts | 214° |
| 2026-04-23 13:46 | 39.99458 | -82.89197 | 817 ft | 10 kts | 219° |
| 2026-04-23 13:47 | 39.99450 | -82.89289 | 818 ft | 11 kts | 274° |
| 2026-04-23 13:47 | 39.99456 | -82.89385 | 820 ft | 12 kts | 274° |
| 2026-04-23 13:47 | 39.99463 | -82.89501 | 818 ft | 15 kts | 274° |
| 2026-04-23 13:47 | 39.99471 | -82.89643 | 816 ft | 16 kts | 274° |
| 2026-04-23 13:48 | 39.99479 | -82.89782 | 816 ft | 15 kts | 274° |
| 2026-04-23 13:48 | 39.99511 | -82.89899 | 815 ft | 14 kts | 323° |
| 2026-04-23 13:48 | 39.99593 | -82.89966 | 813 ft | 16 kts | 294° |
| 2026-04-23 13:48 | 39.99610 | -82.90106 | 812 ft | 16 kts | 276° |
| 2026-04-23 13:49 | 39.99621 | -82.90249 | 810 ft | 16 kts | 275° |
| 2026-04-23 13:49 | 39.99626 | -82.90399 | 808 ft | 16 kts | 273° |
| 2026-04-23 13:49 | 39.99634 | -82.90540 | 809 ft | 15 kts | 275° |
| 2026-04-23 13:49 | 39.99642 | -82.90677 | 810 ft | 16 kts | 274° |
| 2026-04-23 13:50 | 39.99646 | -82.90755 | 810 ft | 0 kts | 274° |
| 2026-04-23 13:50 | 39.99647 | -82.90761 | 810 ft | 5 kts | 273° |
| 2026-04-23 13:50 | 39.99644 | -82.90844 | 810 ft | 11 kts | 247° |
| 2026-04-23 13:51 | 39.99581 | -82.90877 | 811 ft | 12 kts | 184° |
| 2026-04-23 13:51 | 39.99494 | -82.90892 | 813 ft | 12 kts | 186° |
| 2026-04-23 13:51 | 39.99392 | -82.90898 | 812 ft | 15 kts | 166° |
| 2026-04-23 13:51 | 39.99355 | -82.90733 | 811 ft | 44 kts | 94° |
| 2026-04-23 13:52 | 39.99305 | -82.89824 | 819 ft | 143 kts | 94° |
| 2026-04-23 13:52 | 39.99246 | -82.88459 | 1359 ft | 157 kts | 93° |
| 2026-04-23 13:52 | 39.99190 | -82.86997 | 2012 ft | 172 kts | 94° |
| 2026-04-23 13:52 | 39.99074 | -82.85312 | 2467 ft | 200 kts | 95° |
| 2026-04-23 13:53 | 39.98699 | -82.83441 | 3021 ft | 225 kts | 119° |
| 2026-04-23 13:53 | 39.97614 | -82.82043 | 4112 ft | 217 kts | 148° |
| 2026-04-23 13:53 | 39.96277 | -82.81152 | 5164 ft | 217 kts | 161° |
| 2026-04-23 13:53 | 39.94826 | -82.80613 | 6121 ft | 219 kts | 169° |
| 2026-04-23 13:54 | 39.93274 | -82.80106 | 6726 ft | 242 kts | 166° |
| 2026-04-23 13:54 | 39.91584 | -82.79447 | 7419 ft | 259 kts | 164° |
| 2026-04-23 13:54 | 39.89868 | -82.78749 | 8552 ft | 259 kts | 165° |
| 2026-04-23 13:54 | 39.88117 | -82.78066 | 9576 ft | 265 kts | 166° |
| 2026-04-23 13:55 | 39.86343 | -82.77382 | 10444 ft | 272 kts | 165° |
| 2026-04-23 13:55 | 39.84477 | -82.76655 | 10995 ft | 291 kts | 165° |
| 2026-04-23 13:55 | 39.82480 | -82.75875 | 11636 ft | 302 kts | 165° |
| 2026-04-23 13:55 | 39.80469 | -82.75087 | 12600 ft | 303 kts | 165° |
| 2026-04-23 13:56 | 39.78431 | -82.74295 | 13449 ft | 308 kts | 165° |
| 2026-04-23 13:56 | 39.76360 | -82.73491 | 14285 ft | 312 kts | 165° |
| 2026-04-23 13:56 | 39.74268 | -82.72676 | 15048 ft | 316 kts | 164° |
| 2026-04-23 13:56 | 39.72151 | -82.71853 | 15821 ft | 320 kts | 164° |
| 2026-04-23 13:57 | 39.70002 | -82.71019 | 16614 ft | 324 kts | 164° |
| 2026-04-23 13:57 | 39.67823 | -82.70173 | 17401 ft | 329 kts | 163° |
| 2026-04-23 13:57 | 39.65616 | -82.69317 | 18233 ft | 333 kts | 163° |
| 2026-04-23 13:57 | 39.63377 | -82.68449 | 19002 ft | 337 kts | 163° |
| 2026-04-23 13:58 | 39.61107 | -82.67570 | 19733 ft | 342 kts | 163° |
| 2026-04-23 13:58 | 39.58839 | -82.66692 | 20490 ft | 346 kts | 163° |
| 2026-04-23 13:58 | 39.56516 | -82.65794 | 21235 ft | 351 kts | 163° |
| 2026-04-23 13:58 | 39.54158 | -82.64882 | 22005 ft | 356 kts | 163° |
| 2026-04-23 13:59 | 39.51757 | -82.63955 | 22776 ft | 360 kts | 163° |
| 2026-04-23 13:59 | 39.49336 | -82.63020 | 23522 ft | 366 kts | 163° |
| 2026-04-23 13:59 | 39.46884 | -82.62075 | 24163 ft | 370 kts | 163° |
| 2026-04-23 13:59 | 39.44341 | -82.61451 | 24683 ft | 376 kts | 180° |
| 2026-04-23 14:00 | 39.42618 | -82.61583 | 25133 ft | 375 kts | 186° |
| 2026-04-23 14:00 | 39.39120 | -82.61982 | 26013 ft | 380 kts | 186° |
| 2026-04-23 14:00 | 39.36502 | -82.62250 | 26625 ft | 384 kts | 186° |
| 2026-04-23 14:00 | 39.33818 | -82.62506 | 27252 ft | 388 kts | 186° |
| 2026-04-23 14:01 | 39.31103 | -82.62780 | 27896 ft | 392 kts | 186° |
| 2026-04-23 14:01 | 39.28368 | -82.63066 | 28527 ft | 396 kts | 186° |
| 2026-04-23 14:01 | 39.25600 | -82.63349 | 29156 ft | 401 kts | 186° |
| 2026-04-23 14:01 | 39.22803 | -82.63628 | 29780 ft | 405 kts | 186° |
| 2026-04-23 14:02 | 39.19980 | -82.63913 | 30357 ft | 409 kts | 187° |
| 2026-04-23 14:02 | 39.17122 | -82.64205 | 30877 ft | 413 kts | 187° |
| 2026-04-23 14:02 | 39.14240 | -82.64497 | 31401 ft | 417 kts | 186° |
| 2026-04-23 14:02 | 39.11371 | -82.64786 | 31903 ft | 421 kts | 186° |
| 2026-04-23 14:03 | 39.08440 | -82.65081 | 32466 ft | 424 kts | 186° |
| 2026-04-23 14:03 | 39.05483 | -82.65381 | 32958 ft | 428 kts | 186° |
| 2026-04-23 14:03 | 39.02497 | -82.65682 | 33454 ft | 432 kts | 186° |
| 2026-04-23 14:03 | 38.99481 | -82.65986 | 33940 ft | 436 kts | 186° |
| 2026-04-23 14:04 | 38.96436 | -82.66292 | 34387 ft | 440 kts | 186° |
| 2026-04-23 14:04 | 38.93369 | -82.66600 | 34813 ft | 444 kts | 186° |
| 2026-04-23 14:04 | 38.90274 | -82.66912 | 35228 ft | 447 kts | 186° |
| 2026-04-23 14:04 | 38.87157 | -82.67225 | 35635 ft | 451 kts | 186° |
| 2026-04-23 14:05 | 38.84009 | -82.67540 | 36047 ft | 455 kts | 186° |
| 2026-04-23 14:05 | 38.80818 | -82.67579 | 36412 ft | 462 kts | 178° |
| 2026-04-23 14:05 | 38.77619 | -82.67025 | 36839 ft | 466 kts | 171° |
| 2026-04-23 14:05 | 38.74461 | -82.66218 | 37224 ft | 470 kts | 169° |
| 2026-04-23 14:06 | 38.71232 | -82.65455 | 37608 ft | 474 kts | 172° |
| 2026-04-23 14:06 | 38.67960 | -82.64853 | 37993 ft | 477 kts | 174° |
| 2026-04-23 14:06 | 38.64664 | -82.64240 | 38373 ft | 481 kts | 172° |
| 2026-04-23 14:06 | 38.61346 | -82.63513 | 38734 ft | 485 kts | 171° |
| 2026-04-23 14:07 | 38.58029 | -82.62772 | 39036 ft | 481 kts | 172° |
| 2026-04-23 14:07 | 38.52464 | -82.61662 | 39143 ft | 495 kts | 173° |
| 2026-04-23 14:07 | 38.49020 | -82.60964 | 39147 ft | 506 kts | 172° |
| 2026-04-23 14:08 | 38.41935 | -82.59462 | 39148 ft | 525 kts | 172° |
| 2026-04-23 14:08 | 38.34617 | -82.57979 | 39146 ft | 536 kts | 172° |
| 2026-04-23 14:09 | 38.27234 | -82.56443 | 39149 ft | 538 kts | 172° |
| 2026-04-23 14:09 | 38.19840 | -82.54935 | 39140 ft | 538 kts | 172° |
| 2026-04-23 14:10 | 38.12419 | -82.53410 | 39138 ft | 543 kts | 172° |
| 2026-04-23 14:10 | 38.04946 | -82.51884 | 39135 ft | 548 kts | 172° |
| 2026-04-23 14:11 | 37.97401 | -82.50344 | 39133 ft | 549 kts | 172° |
| 2026-04-23 14:11 | 37.89854 | -82.48807 | 39122 ft | 549 kts | 172° |
| 2026-04-23 14:12 | 37.82347 | -82.47282 | 39127 ft | 549 kts | 172° |
| 2026-04-23 14:12 | 37.74753 | -82.45742 | 39128 ft | 549 kts | 172° |
| 2026-04-23 14:13 | 37.67254 | -82.44225 | 39119 ft | 549 kts | 172° |
| 2026-04-23 14:13 | 37.59702 | -82.42700 | 39119 ft | 549 kts | 172° |
| 2026-04-23 14:14 | 37.52144 | -82.41177 | 39124 ft | 549 kts | 172° |
| 2026-04-23 14:14 | 37.44596 | -82.39659 | 39137 ft | 548 kts | 172° |
| 2026-04-23 14:15 | 37.37102 | -82.38154 | 39148 ft | 548 kts | 172° |
| 2026-04-23 14:15 | 37.29551 | -82.36643 | 39145 ft | 548 kts | 172° |
| 2026-04-23 14:16 | 37.22018 | -82.35137 | 39134 ft | 548 kts | 172° |
| 2026-04-23 14:16 | 37.14475 | -82.33632 | 39138 ft | 548 kts | 172° |
| 2026-04-23 14:17 | 37.06942 | -82.32133 | 39135 ft | 548 kts | 172° |
| 2026-04-23 14:17 | 36.99470 | -82.30648 | 39134 ft | 548 kts | 172° |
| 2026-04-23 14:18 | 36.91933 | -82.29154 | 39153 ft | 546 kts | 172° |
| 2026-04-23 14:18 | 36.84421 | -82.27667 | 39172 ft | 546 kts | 172° |
| 2026-04-23 14:19 | 36.76911 | -82.26184 | 39180 ft | 546 kts | 172° |
| 2026-04-23 14:19 | 36.69415 | -82.24707 | 39190 ft | 545 kts | 172° |
| 2026-04-23 14:20 | 36.61955 | -82.23239 | 39188 ft | 545 kts | 172° |
| 2026-04-23 14:20 | 36.54461 | -82.21768 | 39184 ft | 545 kts | 172° |
| 2026-04-23 14:21 | 36.47060 | -82.20317 | 39183 ft | 533 kts | 172° |
| 2026-04-23 14:21 | 36.39716 | -82.18883 | 39176 ft | 534 kts | 172° |
| 2026-04-23 14:22 | 36.32369 | -82.17447 | 39165 ft | 534 kts | 172° |
| 2026-04-23 14:22 | 36.25019 | -82.16016 | 39159 ft | 534 kts | 172° |
| 2026-04-23 14:23 | 36.17731 | -82.14598 | 39147 ft | 535 kts | 172° |
| 2026-04-23 14:23 | 36.10381 | -82.13172 | 39150 ft | 534 kts | 172° |
| 2026-04-23 14:24 | 36.03031 | -82.11748 | 39146 ft | 534 kts | 172° |
| 2026-04-23 14:24 | 35.95693 | -82.10330 | 39137 ft | 534 kts | 172° |
| 2026-04-23 14:25 | 35.88354 | -82.08912 | 39135 ft | 534 kts | 172° |
| 2026-04-23 14:25 | 35.81009 | -82.07499 | 39138 ft | 534 kts | 172° |
| 2026-04-23 14:26 | 35.73673 | -82.06088 | 39144 ft | 534 kts | 172° |
| 2026-04-23 14:26 | 35.66376 | -82.04687 | 39155 ft | 534 kts | 172° |
| 2026-04-23 14:27 | 35.59030 | -82.03280 | 39166 ft | 534 kts | 172° |
| 2026-04-23 14:27 | 35.51687 | -82.01876 | 39174 ft | 534 kts | 172° |
| 2026-04-23 14:28 | 35.44328 | -82.00472 | 39176 ft | 534 kts | 172° |
| 2026-04-23 14:28 | 35.37027 | -81.99081 | 39176 ft | 534 kts | 172° |
| 2026-04-23 14:29 | 35.29680 | -81.97684 | 39170 ft | 534 kts | 172° |
| 2026-04-23 14:29 | 35.22323 | -81.96288 | 39156 ft | 534 kts | 172° |
| 2026-04-23 14:30 | 35.14986 | -81.94898 | 39148 ft | 534 kts | 172° |
| 2026-04-23 14:30 | 35.07645 | -81.93510 | 39152 ft | 534 kts | 172° |
| 2026-04-23 14:31 | 35.00426 | -81.91433 | 39155 ft | 534 kts | 160° |
| 2026-04-23 14:31 | 34.93596 | -81.87873 | 39164 ft | 533 kts | 156° |
| 2026-04-23 14:32 | 34.90153 | -81.86167 | 39030 ft | 535 kts | 159° |
| 2026-04-23 14:32 | 34.86672 | -81.84602 | 38655 ft | 531 kts | 159° |
| 2026-04-23 14:32 | 34.83238 | -81.82986 | 38229 ft | 525 kts | 158° |
| 2026-04-23 14:32 | 34.79882 | -81.81281 | 37773 ft | 520 kts | 156° |
| 2026-04-23 14:33 | 34.76589 | -81.79637 | 37288 ft | 515 kts | 158° |
| 2026-04-23 14:33 | 34.73270 | -81.78073 | 36812 ft | 509 kts | 159° |
| 2026-04-23 14:33 | 34.69983 | -81.76523 | 36339 ft | 503 kts | 158° |
| 2026-04-23 14:33 | 34.66742 | -81.74936 | 35886 ft | 498 kts | 158° |
| 2026-04-23 14:34 | 34.63554 | -81.73366 | 35448 ft | 493 kts | 158° |
| 2026-04-23 14:34 | 34.60375 | -81.71841 | 35011 ft | 488 kts | 158° |
| 2026-04-23 14:34 | 34.57223 | -81.70342 | 34583 ft | 484 kts | 158° |
| 2026-04-23 14:34 | 34.54104 | -81.68837 | 34158 ft | 479 kts | 158° |
| 2026-04-23 14:35 | 34.51023 | -81.67341 | 33678 ft | 475 kts | 158° |
| 2026-04-23 14:35 | 34.47957 | -81.65865 | 33200 ft | 472 kts | 158° |
| 2026-04-23 14:35 | 34.44915 | -81.64411 | 32770 ft | 469 kts | 159° |
| 2026-04-23 14:35 | 34.41891 | -81.62961 | 32311 ft | 466 kts | 159° |
| 2026-04-23 14:36 | 34.38890 | -81.61517 | 31861 ft | 463 kts | 159° |
| 2026-04-23 14:36 | 34.35908 | -81.60085 | 31417 ft | 460 kts | 159° |
| 2026-04-23 14:36 | 34.32947 | -81.58653 | 30978 ft | 457 kts | 158° |
| 2026-04-23 14:36 | 34.30051 | -81.57081 | 30544 ft | 454 kts | 155° |
| 2026-04-23 14:37 | 34.27146 | -81.55392 | 30050 ft | 476 kts | 155° |
| 2026-04-23 14:37 | 34.24141 | -81.53747 | 29574 ft | 481 kts | 157° |
| 2026-04-23 14:37 | 34.21053 | -81.52149 | 29161 ft | 482 kts | 157° |
| 2026-04-23 14:37 | 34.17979 | -81.50512 | 29159 ft | 484 kts | 156° |
| 2026-04-23 14:38 | 34.11828 | -81.47129 | 29164 ft | 486 kts | 156° |
| 2026-04-23 14:38 | 34.05632 | -81.43833 | 29161 ft | 487 kts | 156° |
| 2026-04-23 14:39 | 34.02510 | -81.42141 | 29165 ft | 498 kts | 156° |
| 2026-04-23 14:39 | 33.99320 | -81.40412 | 29162 ft | 507 kts | 156° |
| 2026-04-23 14:39 | 33.92819 | -81.36937 | 29166 ft | 513 kts | 156° |
| 2026-04-23 14:40 | 33.86293 | -81.33430 | 29162 ft | 514 kts | 156° |
| 2026-04-23 14:40 | 33.79789 | -81.29953 | 29162 ft | 515 kts | 156° |
| 2026-04-23 14:41 | 33.73241 | -81.26454 | 29142 ft | 516 kts | 156° |
| 2026-04-23 14:41 | 33.69956 | -81.24698 | 28497 ft | 512 kts | 156° |
| 2026-04-23 14:41 | 33.66715 | -81.22971 | 27829 ft | 506 kts | 156° |
| 2026-04-23 14:42 | 33.63537 | -81.21280 | 27164 ft | 488 kts | 156° |
| 2026-04-23 14:42 | 33.60469 | -81.19647 | 26546 ft | 481 kts | 156° |
| 2026-04-23 14:42 | 33.57418 | -81.18023 | 25915 ft | 477 kts | 156° |
| 2026-04-23 14:42 | 33.54394 | -81.16416 | 25297 ft | 473 kts | 156° |
| 2026-04-23 14:43 | 33.51431 | -81.14843 | 24677 ft | 470 kts | 156° |
| 2026-04-23 14:43 | 33.48453 | -81.13263 | 24059 ft | 465 kts | 156° |
| 2026-04-23 14:43 | 33.45504 | -81.11699 | 23397 ft | 460 kts | 156° |
| 2026-04-23 14:43 | 33.42585 | -81.10152 | 22799 ft | 457 kts | 156° |
| 2026-04-23 14:44 | 33.39690 | -81.08619 | 22213 ft | 451 kts | 156° |
| 2026-04-23 14:44 | 33.36826 | -81.07104 | 21618 ft | 446 kts | 156° |
| 2026-04-23 14:44 | 33.33991 | -81.05606 | 21032 ft | 442 kts | 156° |
| 2026-04-23 14:44 | 33.31185 | -81.04123 | 20449 ft | 430 kts | 156° |
| 2026-04-23 14:45 | 33.28537 | -81.02725 | 19902 ft | 403 kts | 156° |
| 2026-04-23 14:45 | 33.26038 | -81.01406 | 19396 ft | 384 kts | 156° |
| 2026-04-23 14:45 | 33.23614 | -81.00128 | 18895 ft | 378 kts | 156° |
| 2026-04-23 14:45 | 33.21220 | -80.98866 | 18392 ft | 374 kts | 156° |
| 2026-04-23 14:46 | 33.18886 | -80.97637 | 17876 ft | 369 kts | 156° |
| 2026-04-23 14:46 | 33.16550 | -80.96407 | 17387 ft | 365 kts | 156° |
| 2026-04-23 14:46 | 33.14238 | -80.95191 | 16914 ft | 361 kts | 156° |
| 2026-04-23 14:46 | 33.11944 | -80.93985 | 16438 ft | 358 kts | 156° |
| 2026-04-23 14:47 | 33.09677 | -80.92793 | 15971 ft | 354 kts | 156° |
| 2026-04-23 14:47 | 33.07432 | -80.91615 | 15501 ft | 351 kts | 156° |
| 2026-04-23 14:47 | 33.05208 | -80.90447 | 15044 ft | 347 kts | 157° |
| 2026-04-23 14:47 | 33.03000 | -80.89289 | 14597 ft | 345 kts | 157° |
| 2026-04-23 14:48 | 33.00816 | -80.88143 | 14143 ft | 341 kts | 157° |
| 2026-04-23 14:48 | 32.98651 | -80.87009 | 13664 ft | 338 kts | 158° |
| 2026-04-23 14:48 | 32.96501 | -80.85884 | 13218 ft | 336 kts | 157° |
| 2026-04-23 14:48 | 32.94374 | -80.84770 | 12777 ft | 332 kts | 157° |
| 2026-04-23 14:49 | 32.92267 | -80.83667 | 12340 ft | 327 kts | 158° |
| 2026-04-23 14:49 | 32.90186 | -80.82579 | 11911 ft | 327 kts | 157° |
| 2026-04-23 14:49 | 32.88115 | -80.81498 | 11482 ft | 324 kts | 157° |
| 2026-04-23 14:49 | 32.86082 | -80.80436 | 11061 ft | 322 kts | 156° |
| 2026-04-23 14:50 | 32.84042 | -80.79370 | 10637 ft | 318 kts | 156° |
| 2026-04-23 14:50 | 32.82022 | -80.78316 | 10217 ft | 316 kts | 156° |
| 2026-04-23 14:50 | 32.80021 | -80.77273 | 9781 ft | 315 kts | 156° |
| 2026-04-23 14:50 | 32.78013 | -80.76225 | 9361 ft | 314 kts | 156° |
| 2026-04-23 14:51 | 32.76004 | -80.75179 | 8952 ft | 316 kts | 156° |
| 2026-04-23 14:51 | 32.73997 | -80.74134 | 8529 ft | 313 kts | 155° |
| 2026-04-23 14:51 | 32.72015 | -80.73102 | 7970 ft | 303 kts | 155° |
| 2026-04-23 14:51 | 32.70193 | -80.72157 | 7553 ft | 270 kts | 154° |
| 2026-04-23 14:52 | 32.68510 | -80.71281 | 7201 ft | 260 kts | 155° |
| 2026-04-23 14:52 | 32.66854 | -80.70417 | 6865 ft | 258 kts | 154° |
| 2026-04-23 14:52 | 32.65214 | -80.69565 | 6525 ft | 256 kts | 155° |
| 2026-04-23 14:52 | 32.63594 | -80.68724 | 6189 ft | 253 kts | 154° |
| 2026-04-23 14:53 | 32.61988 | -80.67890 | 5856 ft | 251 kts | 155° |
| 2026-04-23 14:53 | 32.60930 | -80.67341 | 5632 ft | 250 kts | 155° |
| 2026-04-23 14:53 | 32.59343 | -80.66517 | 5306 ft | 248 kts | 154° |
| 2026-04-23 14:53 | 32.57258 | -80.65435 | 4870 ft | 246 kts | 155° |
| 2026-04-23 14:54 | 32.55694 | -80.64624 | 4541 ft | 246 kts | 155° |
| 2026-04-23 14:54 | 32.54129 | -80.63813 | 4218 ft | 245 kts | 156° |
| 2026-04-23 14:54 | 32.52567 | -80.63004 | 3894 ft | 244 kts | 156° |
| 2026-04-23 14:54 | 32.51013 | -80.62199 | 3548 ft | 243 kts | 156° |
| 2026-04-23 14:55 | 32.49491 | -80.61411 | 3233 ft | 234 kts | 157° |
| 2026-04-23 14:55 | 32.48510 | -80.60903 | 3026 ft | 229 kts | 158° |
| 2026-04-23 14:55 | 32.47079 | -80.60163 | 2733 ft | 219 kts | 158° |
| 2026-04-23 14:55 | 32.45732 | -80.59465 | 2437 ft | 205 kts | 159° |
| 2026-04-23 14:56 | 32.44463 | -80.58808 | 2269 ft | 191 kts | 159° |
| 2026-04-23 14:56 | 32.43239 | -80.58286 | 2240 ft | 186 kts | 174° |
| 2026-04-23 14:56 | 32.41980 | -80.58485 | 2270 ft | 182 kts | 202° |
| 2026-04-23 14:56 | 32.40842 | -80.59143 | 2299 ft | 184 kts | 208° |
| 2026-04-23 14:57 | 32.39707 | -80.59799 | 2304 ft | 176 kts | 208° |
| 2026-04-23 14:57 | 32.38619 | -80.60421 | 2301 ft | 173 kts | 208° |
| 2026-04-23 14:57 | 32.37537 | -80.61046 | 2295 ft | 173 kts | 208° |
| 2026-04-23 14:57 | 32.36457 | -80.61670 | 2285 ft | 173 kts | 208° |
| 2026-04-23 14:58 | 32.35375 | -80.62293 | 2280 ft | 172 kts | 208° |
| 2026-04-23 14:58 | 32.34295 | -80.62916 | 2308 ft | 172 kts | 208° |
| 2026-04-23 14:58 | 32.33262 | -80.63511 | 2299 ft | 162 kts | 209° |
| 2026-04-23 14:58 | 32.32266 | -80.64085 | 2091 ft | 150 kts | 208° |
| 2026-04-23 14:59 | 32.31401 | -80.64581 | 1896 ft | 134 kts | 209° |
| 2026-04-23 14:59 | 32.30573 | -80.65061 | 1711 ft | 130 kts | 209° |
| 2026-04-23 14:59 | 32.29767 | -80.65525 | 1544 ft | 128 kts | 208° |
| 2026-04-23 14:59 | 32.28963 | -80.65989 | 1379 ft | 129 kts | 208° |
| 2026-04-23 15:00 | 32.28164 | -80.66449 | 1206 ft | 127 kts | 208° |
| 2026-04-23 15:00 | 32.27383 | -80.66898 | 1017 ft | 123 kts | 208° |
| 2026-04-23 15:00 | 32.26619 | -80.67338 | 850 ft | 122 kts | 208° |
| 2026-04-23 15:00 | 32.25844 | -80.67784 | 686 ft | 126 kts | 209° |
| 2026-04-23 15:01 | 32.25058 | -80.68237 | 514 ft | 125 kts | 210° |
| 2026-04-23 15:01 | 32.24283 | -80.68682 | 334 ft | 122 kts | 208° |
| 2026-04-23 15:01 | 32.23524 | -80.69121 | 166 ft | 120 kts | 207° |
| 2026-04-23 15:01 | 32.22801 | -80.69537 | 31 ft | 108 kts | 206° |
| 2026-04-23 15:02 | 32.22270 | -80.69845 | 22 ft | 55 kts | 206° |
| 2026-04-23 15:02 | 32.22036 | -80.69979 | 17 ft | 29 kts | 206° |
| 2026-04-23 15:02 | 32.21919 | -80.70040 | 18 ft | 10 kts | 179° |
| 2026-04-23 15:02 | 32.21887 | -80.69986 | 19 ft | 9 kts | 111° |
| 2026-04-23 15:03 | 32.21918 | -80.69938 | 19 ft | 8 kts | 27° |
| 2026-04-23 15:03 | 32.21972 | -80.69907 | 19 ft | 11 kts | 25° |
| 2026-04-23 15:03 | 32.22063 | -80.69856 | 17 ft | 15 kts | 26° |
| 2026-04-23 15:03 | 32.22148 | -80.69806 | 19 ft | 12 kts | 26° |
| 2026-04-23 15:04 | 32.22212 | -80.69770 | 20 ft | 8 kts | 26° |
| 2026-04-23 15:04 | 32.22223 | -80.69742 | 20 ft | 3 kts | 114° |
| 2026-04-23 15:04 | 32.22217 | -80.69728 | 21 ft | 0 kts | 116° |